Date,TemperatureHighF,TemperatureAvgF,TemperatureLowF,DewpointHighF,DewpointAvgF,DewpointLowF,HumidityHigh,HumidityAvg,HumidityLow,PressureMaxIn,PressureMinIn,WindSpeedMaxMPH,WindSpeedAvgMPH,GustSpeedMaxMPH,PrecipitationSumIn
2014-1-1,53,44,35,47,40,33,97,87,76,30.30,30.20,2,0,4,0.00
2014-1-2,55,46,40,50,43,38,96,91,80,30.22,30.12,2,0,5,0.00
2014-1-3,49,44,38,48,42,34,98,94,84,30.23,30.14,5,2,13,0.02
2014-1-4,53,44,35,34,31,27,88,64,37,30.26,30.17,4,1,14,0.00
2014-1-5,65,51,43,36,26,19,65,39,20,30.26,30.14,2,0,10,0.00
2014-1-6,50,43,36,43,37,30,92,80,55,30.25,30.13,1,0,11,0.02
2014-1-7,51,49,46,49,45,40,97,87,69,30.14,30.06,2,0,6,0.17
2014-1-8,51,49,47,51,48,46,98,97,92,30.13,29.99,2,1,13,0.44
2014-1-9,51,47,44,49,46,43,98,97,93,30.21,30.09,2,0,12,0.13
2014-1-10,55,50,48,50,48,46,98,93,82,30.25,29.91,4,0,11,0.01
2014-1-11,55,48,44,51,46,43,97,91,78,30.23,29.80,5,2,23,0.93
2014-1-12,49,46,43,48,46,42,99,98,96,30.59,30.24,1,0,7,0.97
2014-1-13,53,48,45,48,46,42,99,92,77,30.65,30.56,5,1,12,0.01
2014-1-14,60,49,38,50,43,35,94,79,64,30.57,30.47,4,0,8,0.00
2014-1-15,60,49,37,51,41,33,94,75,49,30.46,30.33,2,0,5,0.00
2014-1-16,65,54,41,50,37,32,77,54,34,30.34,30.14,1,0,5,0.00
2014-1-17,62,51,42,47,38,31,93,64,35,30.17,30.11,2,0,6,0.00
2014-1-18,54,43,36,47,41,35,98,93,77,30.25,30.12,4,0,10,0.00
2014-1-19,57,43,32,48,40,31,98,90,61,30.20,30.12,2,0,5,0.02
2014-1-20,46,43,41,42,39,37,91,86,78,30.18,30.12,0,0,2,0.00
2014-1-21,50,42,37,46,41,35,98,93,85,30.36,30.22,2,0,7,0.00
2014-1-22,53,43,35,47,41,34,98,92,75,30.36,30.20,5,1,14,0.00
2014-1-23,64,51,40,39,37,34,94,63,36,30.19,30.04,3,1,13,0.00
2014-1-24,71,59,47,46,33,28,92,41,24,30.26,30.11,4,1,15,0.00
2014-1-25,64,50,41,48,44,38,96,81,52,30.30,30.18,2,0,4,0.00
2014-1-26,60,45,36,46,40,34,97,85,57,30.19,30.04,2,0,9,0.00
2014-1-27,51,44,37,48,42,36,98,95,83,30.18,30.08,2,0,6,0.03
2014-1-28,55,51,48,54,51,46,98,98,95,30.20,30.05,2,0,6,0.50
2014-1-29,54,49,44,54,48,44,99,97,95,30.08,30.01,3,0,17,0.58
2014-1-30,48,43,38,44,41,37,99,93,75,30.09,30.00,4,0,10,0.00
2014-1-31,45,41,37,44,40,36,98,96,91,30.19,30.09,3,0,8,0.47
2014-2-1,51,43,39,43,40,38,98,90,67,30.19,29.94,3,0,10,0.00
2014-2-2,54,43,36,44,39,35,98,87,58,30.05,29.91,6,1,12,0.03
2014-2-3,44,39,34,41,37,33,98,93,81,30.17,30.05,6,0,12,0.12
2014-2-4,46,39,36,40,36,33,98,91,62,30.23,30.16,1,0,5,0.02
2014-2-5,46,38,31,37,33,30,98,85,61,30.23,30.00,3,0,9,0.01
2014-2-6,46,39,34,46,37,31,98,93,83,30.00,29.70,2,0,11,0.79
2014-2-7,40,40,40,40,40,39,98,97,97,29.85,29.81,2,0,7,0.35
2014-2-8,57,50,46,56,48,45,99,94,86,30.00,29.65,4,1,18,0.44
2014-2-9,58,50,45,51,48,44,98,91,73,30.07,29.95,3,0,10,0.02
2014-2-10,55,48,40,52,46,39,98,95,85,30.26,30.07,2,0,8,0.01
2014-2-11,56,51,47,48,46,44,96,84,69,30.25,29.90,5,1,15,0.21
2014-2-12,53,52,50,53,51,48,98,97,94,30.00,29.90,4,1,12,1.20
2014-2-13,55,52,47,53,50,46,99,96,87,30.18,29.85,3,0,13,0.34
2014-2-14,54,51,48,54,51,48,98,98,97,30.04,29.84,3,1,14,1.84
2014-2-15,56,51,48,53,50,48,99,97,85,29.89,29.52,5,1,18,0.54
2014-2-16,52,46,40,46,41,39,98,85,67,30.15,29.94,4,1,14,0.31
2014-2-17,51,49,48,50,47,42,98,93,76,30.11,29.96,3,1,12,0.08
2014-2-18,56,48,40,51,46,39,98,94,79,30.12,29.91,4,1,17,0.06
2014-2-19,49,42,36,44,40,36,99,92,77,30.34,30.13,4,0,11,0.08
2014-2-20,48,45,42,47,44,40,98,96,90,30.34,30.30,2,0,5,0.09
2014-2-21,55,45,38,49,44,38,99,94,75,30.31,30.19,5,1,13,0.08
2014-2-22,45,38,33,44,38,32,99,98,97,30.19,30.14,2,0,4,0.03
2014-2-23,53,46,37,49,43,36,96,91,77,30.03,29.99,3,0,7,0.07
2014-2-24,65,54,48,54,48,38,97,82,63,30.02,29.92,3,0,8,0.06
2014-2-25,67,53,46,55,48,42,98,83,60,29.94,29.83,2,0,8,0.02
2014-2-26,60,49,46,54,48,45,98,94,79,29.83,29.75,3,0,9,0.01
2014-3-8,56,56,56,56,56,56,97,97,97,29.99,29.99,1,1,4,0.00
2014-3-9,57,54,50,56,53,50,98,97,96,30.07,29.98,1,0,7,0.04
2014-3-10,55,48,41,50,45,40,98,91,72,30.50,30.07,6,1,14,0.04
2014-3-11,61,47,35,43,39,35,98,75,42,30.50,30.29,6,2,14,0.05
2014-3-12,70,55,44,43,38,31,89,55,24,30.29,30.14,3,1,12,0.04
2014-3-13,63,48,38,48,43,37,97,83,52,30.17,30.10,6,1,14,0.03
2014-3-14,54,48,46,52,47,45,98,96,88,30.28,30.11,1,0,7,0.02
2014-3-15,62,52,43,54,49,42,99,91,74,30.38,30.28,2,0,10,0.05
2014-3-16,59,51,43,50,46,41,98,85,61,30.38,30.06,7,1,18,0.05
2014-3-17,49,43,39,42,38,35,98,84,62,30.43,30.22,9,2,21,0.04
2014-3-18,59,45,34,44,37,32,93,78,45,30.40,30.15,7,2,16,0.02
2014-4-5,54,50,46,51,48,45,98,95,84,30.24,30.05,1,0,7,0.01
2014-4-6,60,53,50,55,51,49,98,94,84,30.35,30.24,3,0,9,0.01
2014-4-7,67,54,49,58,52,48,98,92,72,30.29,30.18,4,1,14,0.01
2014-4-8,65,53,47,56,50,46,98,89,65,30.21,30.14,6,1,11,0.01
2014-4-9,63,52,43,54,48,41,98,85,59,30.20,30.12,8,2,17,0.00
2014-4-10,64,49,36,47,42,35,98,79,37,30.19,30.05,8,2,17,0.01
2014-4-11,62,50,39,49,45,38,98,83,60,30.11,29.97,8,3,17,0.00
2014-4-12,60,50,43,49,45,42,97,86,63,30.10,30.01,8,3,16,0.00
2014-4-13,76,55,37,48,42,36,98,67,27,30.14,30.03,5,1,14,0.00
2014-4-14,61,52,45,52,46,42,96,81,59,30.27,30.05,9,2,23,0.01
2014-4-15,59,49,41,46,43,40,97,81,55,30.28,30.16,7,2,16,0.00
2014-4-16,53,44,42,46,42,40,96,92,78,30.20,30.14,1,0,4,0.00
2014-4-17,56,50,46,53,48,45,97,93,81,30.07,29.93,5,0,12,0.00
2014-4-18,67,52,41,51,45,40,97,81,43,30.09,29.89,4,1,13,0.01
2014-4-19,59,49,40,51,45,39,98,88,65,30.27,29.88,3,0,13,0.00
2014-4-20,62,48,40,47,43,39,98,85,53,30.30,30.22,3,0,9,0.00
2014-4-21,60,48,44,48,44,41,97,88,57,30.15,29.97,2,0,10,0.00
2014-4-22,54,47,41,46,43,40,98,88,64,30.07,29.99,3,1,13,0.00
2014-4-23,55,49,44,51,47,43,97,93,80,30.07,29.87,3,1,10,0.00
2014-4-24,56,51,45,52,47,41,98,87,60,29.99,29.84,3,1,12,0.01
2014-4-25,56,47,41,46,42,39,98,85,60,29.95,29.88,8,1,17,0.00
2014-4-26,57,46,36,44,40,35,97,81,55,29.94,29.79,3,1,15,0.00
2014-4-27,56,49,43,49,45,42,98,88,65,30.20,29.87,3,1,13,0.00
2014-4-28,65,51,40,46,42,39,97,73,44,30.34,30.21,3,0,12,0.00
2014-4-29,84,62,43,55,48,39,95,64,25,30.37,30.19,6,1,12,0.00
2014-4-30,92,75,61,54,44,36,71,38,16,30.20,29.99,2,1,11,0.00
2014-5-1,85,68,54,56,47,39,92,50,22,30.13,29.98,4,1,11,0.00
2014-5-2,61,55,50,55,52,48,95,88,79,30.13,30.05,2,0,8,0.00
2014-5-3,62,54,46,50,48,45,97,81,58,30.05,29.87,4,1,15,0.00
2014-5-4,59,52,48,53,49,47,97,91,73,29.95,29.89,3,1,12,0.00
2014-5-5,59,52,46,49,47,43,98,85,60,30.11,30.01,4,1,11,0.00
2014-5-6,59,52,45,50,47,42,97,84,59,30.11,30.06,8,2,21,0.00
2014-5-7,62,50,41,48,44,40,96,81,53,30.09,29.95,4,1,12,0.00
2014-5-8,56,52,47,55,51,46,98,96,93,29.99,29.81,2,0,11,0.00
2014-5-9,56,50,48,52,48,45,99,92,68,30.16,30.00,4,1,15,0.00
2014-5-10,59,50,44,48,46,44,98,88,61,30.32,30.15,6,1,14,0.00
2014-5-11,66,52,40,53,46,39,98,82,57,30.33,30.20,7,2,16,0.00
2014-5-12,76,59,43,57,49,42,98,74,41,30.26,30.16,7,1,15,0.00
2014-5-13,84,67,50,56,50,46,90,60,32,30.22,30.12,6,2,14,0.00
2014-5-14,87,72,57,63,52,47,81,52,28,30.16,30.06,3,0,10,0.00
2014-5-15,69,59,52,60,52,50,93,80,65,30.15,30.03,4,1,12,0.00
2014-5-16,54,52,50,52,50,48,95,93,90,30.16,30.12,0,0,2,0.00
2014-5-17,68,58,52,54,51,50,96,81,57,30.14,29.94,4,1,11,0.00
2014-5-18,62,55,51,55,51,49,98,87,68,29.98,29.92,3,1,14,0.00
2014-5-19,63,54,50,56,51,48,97,88,65,30.05,29.94,6,1,15,0.00
2014-5-20,65,55,47,56,51,46,98,86,69,30.17,30.05,9,3,18,0.00
2014-5-21,67,56,47,55,50,46,96,82,63,30.17,30.08,8,3,20,0.00
2014-5-22,75,59,48,60,53,47,98,83,59,30.11,29.99,8,2,16,0.00
2014-5-23,73,58,52,59,54,51,98,88,55,30.17,30.05,6,1,13,0.00
2014-5-24,54,53,52,53,51,50,97,95,88,30.18,30.15,5,3,11,0.00
2014-5-25,69,57,49,56,52,48,96,83,53,30.16,30.07,3,0,11,0.00
2014-5-26,64,56,48,54,51,46,97,82,54,30.20,30.12,7,2,16,0.00
2014-5-27,62,53,44,50,46,43,97,78,55,30.20,30.17,4,1,12,0.00
2014-5-28,62,53,46,52,48,45,97,84,60,30.27,30.17,6,1,14,0.00
2014-5-29,66,53,41,52,47,40,98,80,53,30.27,30.06,9,3,29,0.00
2014-5-30,65,54,44,53,49,43,97,82,62,30.08,29.99,8,3,17,0.00
2014-5-31,66,57,53,55,51,49,91,81,66,30.13,30.06,8,3,18,0.00
2014-6-1,64,56,50,55,51,48,95,83,71,30.13,29.97,8,3,17,0.00
2014-6-2,65,56,50,56,51,48,97,85,70,30.01,29.94,10,4,18,0.00
2014-6-3,64,56,49,53,49,47,93,79,65,30.09,30.01,8,3,18,0.00
2014-6-4,67,56,46,55,50,44,97,82,64,30.11,30.05,9,3,18,0.00
2014-6-5,70,56,46,53,47,43,97,74,50,30.09,30.02,9,3,20,0.00
2014-6-6,71,56,44,53,47,42,95,75,51,30.09,30.02,8,3,20,0.00
2014-6-7,70,57,48,56,51,46,97,83,59,30.17,30.09,8,3,19,0.00
2014-6-8,73,59,50,60,53,50,98,83,60,30.18,30.08,8,3,21,0.00
2014-6-9,68,58,50,56,51,47,97,80,57,30.12,30.05,9,4,19,0.00
2014-6-10,69,57,46,54,49,45,97,78,56,30.10,30.03,8,3,17,0.00
2014-6-11,70,57,47,57,51,45,97,83,59,30.04,29.92,8,2,21,0.00
2014-6-12,63,56,52,55,51,49,94,84,68,30.06,29.93,3,1,16,0.09
2014-6-13,60,55,49,54,52,48,97,89,75,30.22,30.06,5,1,13,0.17
2014-6-14,65,55,47,53,49,46,97,81,61,30.21,30.04,8,3,17,0.01
2014-6-15,64,55,48,54,50,47,97,83,68,30.04,29.95,7,2,17,0.00
2014-6-16,62,54,48,51,48,45,97,82,57,30.10,29.97,8,2,17,0.03
2014-6-17,64,54,47,51,48,46,97,81,60,30.19,30.10,7,2,16,0.00
2014-6-18,71,56,45,56,49,44,97,79,56,30.16,30.04,7,2,19,0.00
2014-6-19,70,57,46,57,51,44,97,82,58,30.13,30.04,3,1,11,0.00
2014-6-20,66,57,49,54,50,46,97,80,53,30.16,30.11,9,4,21,0.03
2014-6-21,66,50,45,53,47,44,97,90,63,30.12,30.03,5,1,11,0.00
2014-6-22,72,58,47,58,51,46,97,81,56,30.08,29.99,7,2,15,0.00
2014-6-23,71,60,52,54,52,48,96,77,47,30.12,30.05,6,1,13,0.00
2014-6-24,75,62,51,61,56,50,97,81,58,30.13,30.04,5,1,12,0.00
2014-6-25,60,59,57,60,58,56,98,97,95,30.04,29.84,3,0,6,0.66
2014-6-26,71,61,57,62,58,56,98,90,66,29.92,29.85,3,0,11,0.07
2014-6-27,66,60,57,60,57,55,98,90,77,30.01,29.81,3,1,11,0.13
2014-6-28,68,60,56,59,56,54,97,87,68,30.11,29.99,3,0,11,0.14
2014-6-29,69,61,55,58,55,52,98,81,62,30.17,30.10,9,3,19,0.03
2014-6-30,80,64,52,61,56,51,97,78,52,30.12,29.88,7,2,14,0.00
2014-7-1,78,64,54,64,58,53,98,82,57,29.94,29.79,5,1,11,0.00
2014-7-2,70,62,57,58,57,54,97,82,59,30.07,29.94,8,3,16,0.00
2014-7-3,66,60,54,57,54,51,90,81,70,30.10,30.05,7,3,15,0.00
2014-7-4,71,60,50,59,54,49,97,81,60,30.08,30.00,7,1,13,0.00
2014-7-5,76,61,50,61,54,49,98,80,53,30.14,30.07,6,1,13,0.00
2014-7-6,77,64,51,63,57,50,98,82,54,30.17,30.08,8,2,18,0.00
2014-7-7,75,64,59,66,60,57,98,88,69,30.11,29.99,7,3,15,0.01
2014-7-8,70,61,56,62,58,55,98,90,74,30.02,29.98,6,2,13,0.00
2014-7-9,71,61,54,60,56,52,97,85,67,30.03,29.94,8,3,17,0.00
2014-7-10,73,61,52,60,55,51,97,83,61,29.97,29.89,4,1,13,0.00
2014-7-12,71,59,52,61,55,51,98,88,68,30.15,30.07,3,1,10,0.01
2014-7-13,63,58,55,59,56,54,98,93,84,30.17,30.11,3,1,7,0.02
2014-7-14,76,63,56,66,58,55,98,87,67,30.16,30.05,8,3,16,0.01
2014-7-15,74,60,53,62,56,52,98,87,64,30.07,29.98,4,1,11,0.00
2014-7-16,71,57,53,62,55,52,98,92,71,30.07,30.02,4,1,12,0.01
2014-7-17,74,62,54,61,55,51,92,78,59,30.07,30.00,8,2,16,0.00
2014-7-18,75,60,49,58,54,48,97,81,56,30.08,30.03,7,2,17,0.00
2014-7-19,82,66,52,66,59,51,97,79,55,30.07,29.97,8,3,18,0.00
2014-7-20,70,61,54,59,56,52,98,86,62,30.00,29.95,7,3,16,0.01
2014-7-21,68,57,52,60,55,51,97,91,73,30.06,29.98,2,0,9,0.09
2014-7-22,56,56,55,55,55,55,98,98,97,30.05,30.03,0,0,1,0.01
2014-7-23,66,58,54,58,54,52,97,90,66,30.25,30.06,2,0,9,0.50
2014-7-24,69,60,50,59,54,49,98,84,62,30.28,30.14,8,2,18,0.01
2014-7-25,73,60,50,59,54,49,98,83,61,30.14,30.05,8,2,17,0.00
2014-7-26,74,61,50,62,55,49,98,83,62,30.11,30.06,7,2,17,0.00
2014-7-27,78,63,51,64,57,50,98,83,57,30.09,30.01,7,2,18,0.00
2014-7-28,75,62,54,63,57,53,98,85,62,30.11,30.05,5,1,11,0.00
2014-7-29,71,60,54,61,56,53,98,88,69,30.14,30.10,6,2,14,0.00
2014-7-30,75,62,55,63,57,53,97,84,56,30.13,30.03,6,2,16,0.00
2014-7-31,73,60,51,60,55,50,98,85,62,30.08,30.00,7,1,14,0.00
2014-8-1,70,59,52,60,55,51,97,87,69,30.06,30.00,6,2,13,0.00
2014-8-2,72,61,55,61,57,54,97,86,68,30.05,30.00,6,2,14,0.00
2014-8-3,75,62,56,64,57,54,95,85,67,30.04,29.95,5,1,12,0.00
2014-8-4,68,60,56,61,57,54,98,91,76,30.07,29.99,6,2,12,0.00
2014-8-5,72,61,54,61,56,53,97,85,67,30.15,30.05,6,1,11,0.00
2014-8-6,77,64,55,64,58,54,97,83,62,30.15,30.04,6,1,15,0.00
2014-8-7,73,60,52,60,54,51,98,83,55,30.10,30.04,8,2,17,0.00
2014-8-8,72,60,51,56,53,50,97,80,55,30.12,30.05,8,2,17,0.00
2014-8-9,73,60,52,60,54,51,98,82,58,30.10,30.01,7,2,14,0.00
2014-8-10,78,62,49,62,55,48,97,80,50,30.04,29.90,6,1,13,0.00
2014-8-11,72,60,53,62,56,52,97,87,70,29.96,29.90,2,0,10,0.00
2014-8-12,69,60,54,60,56,53,98,89,72,29.97,29.89,4,1,11,0.00
2014-8-15,73,64,57,63,60,56,96,87,70,30.07,30.00,5,1,14,0.00
2014-8-16,78,63,55,66,59,54,98,86,66,30.07,30.02,6,1,12,0.00
2014-8-17,76,62,55,65,58,53,98,85,64,30.07,29.99,8,2,16,0.00
2014-8-18,72,60,54,62,56,53,97,87,68,30.02,29.86,5,1,12,0.00
2014-8-19,74,63,56,64,59,55,97,87,69,29.93,29.88,7,2,16,0.00
2014-8-20,73,64,56,64,58,52,98,83,61,30.01,29.92,8,2,18,0.00
2014-8-21,77,61,49,60,51,41,98,75,30,30.05,29.99,7,1,14,0.00
2014-8-22,74,62,54,62,57,52,96,84,65,30.05,30.00,8,2,17,0.01
2014-8-23,77,58,49,61,54,48,98,86,56,30.07,29.99,6,1,14,0.00
2014-8-24,75,58,50,60,54,49,98,87,57,30.00,29.90,8,2,16,0.00
2014-8-25,79,64,54,63,56,53,98,79,51,29.94,29.86,7,2,19,0.00
2014-8-26,77,60,51,61,55,50,97,83,55,30.04,29.93,5,1,12,0.00
2014-8-27,74,60,54,62,56,53,98,89,62,30.08,30.03,4,1,10,0.00
2014-8-28,78,62,54,63,57,53,98,86,57,30.12,30.03,8,1,17,0.00
2014-8-29,73,63,57,61,59,56,98,86,64,30.05,29.98,7,1,15,0.01
2014-8-30,68,61,55,63,58,54,98,91,76,30.04,29.99,3,0,9,0.19
2014-8-31,76,61,51,60,55,50,98,82,49,30.09,30.04,7,1,14,0.00
2014-9-1,78,63,51,60,56,50,98,80,51,30.06,29.94,8,2,17,0.01
2014-9-2,72,62,56,61,56,54,98,84,54,30.01,29.92,9,3,18,0.00
2014-9-3,72,59,50,54,50,46,96,75,41,30.08,29.98,8,3,18,0.00
2014-9-4,80,62,48,55,51,47,97,73,38,29.99,29.83,8,2,16,0.00
2014-9-5,95,65,50,54,48,34,95,63,12,29.90,29.81,4,0,12,0.00
2014-9-6,68,54,49,57,51,48,98,91,67,29.95,29.89,4,1,10,0.00
2014-9-7,63,54,51,56,52,50,98,93,76,29.94,29.89,3,1,9,0.00
2014-9-8,70,57,51,59,54,50,98,90,67,30.02,29.90,7,2,17,0.00
2014-9-9,70,60,53,57,54,51,98,81,56,30.12,30.02,8,2,18,0.00
2014-9-10,76,60,49,59,53,48,98,81,54,30.12,29.99,7,2,14,0.00
2014-9-11,90,66,50,55,51,47,96,64,26,30.00,29.84,4,1,10,0.00
2014-9-12,61,57,54,48,47,46,76,68,60,29.86,29.85,0,0,0,0.00
2014-9-13,82,63,49,56,48,44,88,63,30,29.86,29.82,3,1,9,0.00
2014-9-14,81,62,48,54,48,44,87,64,29,29.84,29.81,3,0,9,0.00
2014-9-15,65,56,47,56,52,45,97,87,72,29.92,29.82,6,1,14,0.00
2014-9-16,73,60,51,59,54,49,97,83,55,29.93,29.81,4,1,15,0.00
2014-9-17,62,58,55,58,56,53,97,92,82,29.81,29.72,2,0,6,0.05
2014-9-18,75,60,55,65,58,54,99,93,66,29.88,29.72,4,0,10,0.05
2014-9-19,79,62,52,64,57,51,98,84,58,30.06,29.95,7,2,16,0.00
2014-9-20,78,64,55,63,58,54,97,82,58,29.97,29.85,4,1,13,0.00
2014-9-21,71,61,57,61,57,55,98,90,71,30.00,29.88,5,1,12,0.01
2014-9-22,70,61,57,59,57,56,95,87,69,30.03,29.90,3,0,8,0.00
2014-9-23,75,64,57,64,60,56,96,86,63,29.90,29.73,4,0,22,0.45
2014-9-24,59,58,58,58,58,57,98,98,97,29.87,29.79,0,0,5,0.92
2014-9-25,70,59,52,58,54,50,97,85,62,29.95,29.83,3,0,11,0.01
2014-9-26,70,59,50,58,54,49,95,83,60,30.05,29.96,4,1,11,0.00